地図

経路データ

SID SEASON NUMBER BASIN SUBBASIN NAME ISO_TIME NATURE LAT LON WMO_WIND WMO_PRES WMO_AGENCY TRACK_TYPE DIST2LAND LANDFALL IFLAG USA_AGENCY USA_ATCF_ID USA_LAT USA_LON USA_RECORD USA_STATUS USA_WIND USA_PRES USA_SSHS USA_R34_NE USA_R34_SE USA_R34_SW USA_R34_NW USA_R50_NE USA_R50_SE USA_R50_SW USA_R50_NW USA_R64_NE USA_R64_SE USA_R64_SW USA_R64_NW USA_POCI USA_ROCI USA_RMW USA_EYE TOKYO_LAT TOKYO_LON TOKYO_GRADE TOKYO_WIND TOKYO_PRES TOKYO_R50_DIR TOKYO_R50_LONG TOKYO_R50_SHORT TOKYO_R30_DIR TOKYO_R30_LONG TOKYO_R30_SHORT TOKYO_LAND CMA_LAT CMA_LON CMA_CAT CMA_WIND CMA_PRES HKO_LAT HKO_LON HKO_CAT HKO_WIND HKO_PRES NEWDELHI_LAT NEWDELHI_LON NEWDELHI_GRADE NEWDELHI_WIND NEWDELHI_PRES NEWDELHI_CI NEWDELHI_DP NEWDELHI_POCI REUNION_LAT REUNION_LON REUNION_TYPE REUNION_WIND REUNION_PRES REUNION_TNUM REUNION_CI REUNION_RMW REUNION_R34_NE REUNION_R34_SE REUNION_R34_SW REUNION_R34_NW REUNION_R50_NE REUNION_R50_SE REUNION_R50_SW REUNION_R50_NW REUNION_R64_NE REUNION_R64_SE REUNION_R64_SW REUNION_R64_NW BOM_LAT BOM_LON BOM_TYPE BOM_WIND BOM_PRES BOM_TNUM BOM_CI BOM_RMW BOM_R34_NE BOM_R34_SE BOM_R34_SW BOM_R34_NW BOM_R50_NE BOM_R50_SE BOM_R50_SW BOM_R50_NW BOM_R64_NE BOM_R64_SE BOM_R64_SW BOM_R64_NW BOM_ROCI BOM_POCI BOM_EYE BOM_POS_METHOD BOM_PRES_METHOD NADI_LAT NADI_LON NADI_CAT NADI_WIND NADI_PRES WELLINGTON_LAT WELLINGTON_LON WELLINGTON_WIND WELLINGTON_PRES DS824_LAT DS824_LON DS824_STAGE DS824_WIND DS824_PRES TD9636_LAT TD9636_LON TD9636_STAGE TD9636_WIND TD9636_PRES TD9635_LAT TD9635_LON TD9635_WIND TD9635_PRES TD9635_ROCI NEUMANN_LAT NEUMANN_LON NEUMANN_CLASS NEUMANN_WIND NEUMANN_PRES MLC_LAT MLC_LON MLC_CLASS MLC_WIND MLC_PRES USA_GUST BOM_GUST BOM_GUST_PER REUNION_GUST REUNION_GUST_PER USA_SEAHGT USA_SEARAD_NE USA_SEARAD_SE USA_SEARAD_SW USA_SEARAD_NW STORM_SPEED STORM_DIR
1983205N10322 1983 36 NA NA NOT_NAMED 1983-07-23 12:00:00 TS 10.0000 -38.0000 20 hurdat_atl main 1459 1451 O_____________ hurdat_atl AL011983 10.0000 -38.0000 TD 20 -1 14 275
1983205N10322 1983 36 NA NA NOT_NAMED 1983-07-23 15:00:00 TS 10.0628 -38.6977 main 1461 1445 P_____________ AL011983 10.0628 -38.6977 TD 22 -1 14 278
1983205N10322 1983 36 NA NA NOT_NAMED 1983-07-23 18:00:00 TS 10.2000 -39.4000 25 hurdat_atl main 1445 1412 O_____________ hurdat_atl AL011983 10.2000 -39.4000 TD 25 -1 14 286
1983205N10322 1983 36 NA NA NOT_NAMED 1983-07-23 21:00:00 TS 10.4499 -40.1073 main 1412 1361 P_____________ AL011983 10.4499 -40.1073 TD 25 -1 15 290
1983205N10322 1983 36 NA NA NOT_NAMED 1983-07-24 00:00:00 TS 10.7000 -40.8000 25 hurdat_atl main 1361 1312 O_____________ hurdat_atl AL011983 10.7000 -40.8000 TD 25 -1 14 286
1983205N10322 1983 36 NA NA NOT_NAMED 1983-07-24 03:00:00 TS 10.8298 -41.4576 main 1303 1255 P_____________ AL011983 10.8298 -41.4576 TD 27 -1 13 279
1983205N10322 1983 36 NA NA NOT_NAMED 1983-07-24 06:00:00 TS 10.9000 -42.1000 30 hurdat_atl main 1255 1202 O_____________ hurdat_atl AL011983 10.9000 -42.1000 TD 30 -1 13 275
1983205N10322 1983 36 NA NA NOT_NAMED 1983-07-24 09:00:00 TS 10.9498 -42.7351 main 1202 1149 P_____________ AL011983 10.9498 -42.7351 TD 30 -1 13 274
1983205N10322 1983 36 NA NA NOT_NAMED 1983-07-24 12:00:00 TS 11.0000 -43.4000 30 hurdat_atl main 1149 1100 O_____________ hurdat_atl AL011983 11.0000 -43.4000 TD 30 -1 14 275
1983205N10322 1983 36 NA NA NOT_NAMED 1983-07-24 15:00:00 TS 11.0775 -44.1501 main 1092 1046 P_____________ AL011983 11.0775 -44.1501 TD 30 -1 15 278
1983205N10322 1983 36 NA NA NOT_NAMED 1983-07-24 18:00:00 TS 11.2000 -44.9000 30 hurdat_atl main 1046 1018 O_____________ hurdat_atl AL011983 11.2000 -44.9000 TD 30 -1 14 283
1983205N10322 1983 36 NA NA NOT_NAMED 1983-07-24 21:00:00 TS 11.3996 -45.5424 main 1020 992 P_____________ AL011983 11.3996 -45.5424 TD 30 -1 13 287
1983205N10322 1983 36 NA NA NOT_NAMED 1983-07-25 00:00:00 TS 11.6000 -46.2000 30 hurdat_atl main 992 953 O_____________ hurdat_atl AL011983 11.6000 -46.2000 TD 30 -1 15 282
1983205N10322 1983 36 NA NA NOT_NAMED 1983-07-25 03:00:00 TS 11.7152 -47.0076 main 953 908 P_____________ AL011983 11.7152 -47.0076 TD 30 -1 16 277
1983205N10322 1983 36 NA NA NOT_NAMED 1983-07-25 06:00:00 TS 11.8000 -47.8000 30 hurdat_atl main 908 881 O_____________ hurdat_atl AL011983 11.8000 -47.8000 TD 30 -1 14 278
1983205N10322 1983 36 NA NA NOT_NAMED 1983-07-25 09:00:00 TS 11.9070 -48.4075 main 881 858 P_____________ AL011983 11.9070 -48.4075 TD 30 -1 12 280
1983205N10322 1983 36 NA NA NOT_NAMED 1983-07-25 12:00:00 TS 12.0000 -49.0000 30 hurdat_atl main 858 828 O_____________ hurdat_atl AL011983 12.0000 -49.0000 TD 30 -1 13 277
1983205N10322 1983 36 NA NA NOT_NAMED 1983-07-25 15:00:00 TS 12.0575 -49.7276 main 834 802 P_____________ AL011983 12.0575 -49.7276 TD 30 -1 15 274
1983205N10322 1983 36 NA NA NOT_NAMED 1983-07-25 18:00:00 TS 12.1000 -50.5000 30 hurdat_atl main 802 768 O_____________ hurdat_atl AL011983 12.1000 -50.5000 TD 30 -1 15 273
1983205N10322 1983 36 NA NA NOT_NAMED 1983-07-25 21:00:00 TS 12.1425 -51.2800 main 764 745 P_____________ AL011983 12.1425 -51.2800 TD 30 -1 15 274
1983205N10322 1983 36 NA NA NOT_NAMED 1983-07-26 00:00:00 TS 12.2000 -52.0000 30 hurdat_atl main 745 735 O_____________ hurdat_atl AL011983 12.2000 -52.0000 TD 30 -1 13 277
1983205N10322 1983 36 NA NA NOT_NAMED 1983-07-26 03:00:00 TS 12.2920 -52.5575 main 738 733 P_____________ AL011983 12.2920 -52.5575 TD 30 -1 11 281
1983205N10322 1983 36 NA NA NOT_NAMED 1983-07-26 06:00:00 TS 12.4000 -53.1000 30 hurdat_atl main 738 732 O_____________ hurdat_atl AL011983 12.4000 -53.1000 TD 30 -1 12 279
1983205N10322 1983 36 NA NA NOT_NAMED 1983-07-26 09:00:00 TS 12.4849 -53.7702 main 740 712 P_____________ AL011983 12.4849 -53.7702 TD 30 -1 14 278
1983205N10322 1983 36 NA NA NOT_NAMED 1983-07-26 12:00:00 TS 12.6000 -54.5000 30 hurdat_atl main 712 674 O_____________ hurdat_atl AL011983 12.6000 -54.5000 TD 30 -1 15 282
1983205N10322 1983 36 NA NA NOT_NAMED 1983-07-26 15:00:00 TS 12.8075 -55.2647 main 663 602 P_____________ AL011983 12.8075 -55.2647 TD 30 -1 15 285
1983205N10322 1983 36 NA NA NOT_NAMED 1983-07-26 18:00:00 TS 13.0000 -56.0000 30 hurdat_atl main 602 549 O_____________ hurdat_atl AL011983 13.0000 -56.0000 TD 30 -1 13 281
1983205N10322 1983 36 NA NA NOT_NAMED 1983-07-26 21:00:00 TS 13.0645 -56.5928 main 549 493 P_____________ AL011983 13.0645 -56.5928 TD 30 -1 12 275
1983205N10322 1983 36 NA NA NOT_NAMED 1983-07-27 00:00:00 TS 13.1000 -57.2000 30 hurdat_atl main 493 438 O_____________ hurdat_atl AL011983 13.1000 -57.2000 TD 30 -1 14 275
1983205N10322 1983 36 NA NA NOT_NAMED 1983-07-27 03:00:00 TS 13.1777 -57.9926 main 430 376 P_____________ AL011983 13.1777 -57.9926 TD 30 -1 16 277
1983205N10322 1983 36 NA NA NOT_NAMED 1983-07-27 06:00:00 TS 13.3000 -58.8000 30 hurdat_atl main 376 354 O_____________ hurdat_atl AL011983 13.3000 -58.8000 TD 30 -1 14 283
1983205N10322 1983 36 NA CS NOT_NAMED 1983-07-27 09:00:00 TS 13.4994 -59.4425 main 358 346 P_____________ AL011983 13.4994 -59.4425 TD 30 -1 13 288
1983205N10322 1983 36 NA CS NOT_NAMED 1983-07-27 12:00:00 TS 13.7000 -60.1000 30 hurdat_atl main 349 342 O_____________ hurdat_atl AL011983 13.7000 -60.1000 TD 30 -1 15 282
1983205N10322 1983 36 NA CS NOT_NAMED 1983-07-27 15:00:00 TS 13.8228 -60.9575 main 347 347 P_____________ AL011983 13.8228 -60.9575 TD 30 -1 17 277
1983205N10322 1983 36 NA CS NOT_NAMED 1983-07-27 18:00:00 TS 13.9000 -61.8000 30 hurdat_atl main 358 358 O_____________ hurdat_atl AL011983 13.9000 -61.8000 TD 30 -1 14 275
1983205N10322 1983 36 NA CS NOT_NAMED 1983-07-27 21:00:00 TS 13.9493 -62.4077 main 358 358 P_____________ AL011983 13.9493 -62.4077 TD 27 -1 12 275
1983205N10322 1983 36 NA CS NOT_NAMED 1983-07-28 00:00:00 TS 14.0000 -63.0000 25 hurdat_atl main 369 369 O_____________ hurdat_atl AL011983 14.0000 -63.0000 TD 25 -1 13 275
1983205N10322 1983 36 NA CS NOT_NAMED 1983-07-28 03:00:00 TS 14.0777 -63.7851 main 388 388 P_____________ AL011983 14.0777 -63.7851 TD 25 -1 16 277
1983205N10322 1983 36 NA CS NOT_NAMED 1983-07-28 06:00:00 TS 14.2000 -64.6000 25 hurdat_atl main 405 403 O_____________ hurdat_atl AL011983 14.2000 -64.6000 TD 25 -1 15 282
1983205N10322 1983 36 NA CS NOT_NAMED 1983-07-28 09:00:00 TS 14.3846 -65.3075 main 403 369 P_____________ AL011983 14.3846 -65.3075 TD 22 -1 14 286
1983205N10322 1983 36 NA CS NOT_NAMED 1983-07-28 12:00:00 TS 14.6000 -66.0000 20 hurdat_atl main 369 347 O_____________ hurdat_atl AL011983 14.6000 -66.0000 TD 20 -1 14 287
1983205N10322 1983 36 NA CS NOT_NAMED 1983-07-28 15:00:00 TS 14.8056 -66.7348 main 347 324 P_____________ AL011983 14.8056 -66.7348 TD 20 -1 15 285
1983205N10322 1983 36 NA CS NOT_NAMED 1983-07-28 18:00:00 TS 15.0000 -67.5000 20 hurdat_atl main 326 O_____________ hurdat_atl AL011983 15.0000 -67.5000 TD 20 -1 15 285

IBTrACS Databaseについて

本データベースは、米国NOAAが公開する1842年以降の世界の熱帯低気圧のベストトラックデータアーカイブInternational Best Track Archive for Climate Stewardship (IBTrACS)を、ウェブで閲覧しやすい形式に変換したものです。

最終更新日:2021-12-06